| time (UTC) | temp C | wind direction | speed KPH | gust KPH | rain 1hr cm | rain 24hr cm | rain mn cm | humidity % | barometer mb |
| 20260905203058 | 11 | 0.0 | 0.0 | 0.05 | 1.45 | 1.12 | 99 | 1017.0 | |
| 20260905202557 | 11 | 0.0 | 0.0 | 0.03 | 1.42 | 1.09 | 99 | 1016.7 | |
| 20260905202055 | 11 | 0.0 | 0.0 | 0.03 | 1.42 | 1.09 | 99 | 1016.7 | |
| 20260905201553 | 11 | 0.0 | 0.0 | 0.00 | 1.40 | 1.07 | 99 | 1016.9 | |
| 20260905201051 | 11 | 0.0 | 0.0 | 0.00 | 1.40 | 1.07 | 99 | 1016.7 | |
| 20260905200550 | 11 | 0.0 | 0.0 | 0.00 | 1.40 | 1.07 | 99 | 1016.6 | |
| 20260905200048 | 11 | 0.0 | 0.0 | 0.00 | 1.40 | 1.07 | 99 | 1016.5 | |
| 20260905195546 | 11 | 0.0 | 0.0 | 0.00 | 1.42 | 1.07 | 99 | 1016.6 | |
| 20260905195044 | 11 | 0.0 | 0.0 | 0.00 | 1.42 | 1.07 | 99 | 1016.5 | |
| 20260905194542 | 11 | 0.0 | 0.0 | 0.00 | 1.42 | 1.07 | 99 | 1016.4 | |
| 20260905194040 | 11 | 0.0 | 0.0 | 0.00 | 1.42 | 1.07 | 99 | 1016.3 | |
| 20260905193539 | 11 | 0.0 | 0.0 | 0.00 | 1.42 | 1.07 | 99 | 1016.2 | |
| 20260905193037 | 11 | 0.0 | 0.0 | 0.00 | 1.42 | 1.07 | 99 | 1016.2 | |
| 20260905192535 | 11 | 0.0 | 0.0 | 0.00 | 1.42 | 1.07 | 99 | 1016.4 | |
| 20260905192034 | 11 | 0.0 | 0.0 | 0.00 | 1.42 | 1.07 | 99 | 1016.5 | |
| 20260905191532 | 11 | 0.0 | 0.0 | 0.00 | 1.42 | 1.07 | 99 | 1016.5 | |
| 20260905191030 | 11 | 0.0 | 0.0 | 0.00 | 1.42 | 1.07 | 99 | 1016.4 | |
| 20260905190528 | 11 | 0.0 | 0.0 | 0.00 | 1.42 | 1.07 | 99 | 1016.4 | |
| 20260905190026 | 11 | 0.0 | 0.0 | 0.00 | 1.42 | 1.07 | 99 | 1016.3 | |
| 20260905185525 | 12 | 0.0 | 0.0 | 0.00 | 1.42 | 1.07 | 99 | 1016.1 | |
| 20260905185023 | 11 | 0.0 | 0.0 | 0.00 | 1.42 | 1.07 | 99 | 1016.4 | |
| 20260905184522 | 11 | 0.0 | 0.0 | 0.03 | 1.42 | 1.07 | 99 | 1016.1 | |
| 20260905184020 | 11 | 0.0 | 0.0 | 0.03 | 1.42 | 1.07 | 99 | 1016.3 | |
| 20260905183518 | 12 | 0.0 | 0.0 | 0.03 | 1.42 | 1.07 | 99 | 1016.4 | |
| 20260905183016 | 12 | 0.0 | 0.0 | 0.03 | 1.42 | 1.07 | 99 | 1016.2 | |
| 20260905182514 | 12 | 0.0 | 0.0 | 0.03 | 1.42 | 1.07 | 99 | 1016.1 | |
| 20260905182013 | 12 | 0.0 | 0.0 | 0.03 | 1.42 | 1.07 | 99 | 1016.2 | |
| 20260905181511 | 12 | 0.0 | 0.0 | 0.05 | 1.42 | 1.07 | 99 | 1016.2 | |
| 20260905181009 | 12 | 0.0 | 0.0 | 0.05 | 1.42 | 1.07 | 99 | 1016.1 | |
| 20260905180508 | 12 | 0.0 | 0.0 | 0.05 | 1.42 | 1.07 | 99 | 1016.1 | |
| 20260905180006 | 12 | 0.0 | 0.0 | 0.05 | 1.42 | 1.07 | 99 | 1016.1 | |
| 20260905175504 | 12 | 0.0 | 0.0 | 0.10 | 1.70 | 1.07 | 99 | 1016.0 | |
| 20260905175002 | 12 | 0.0 | 0.0 | 0.10 | 1.70 | 1.07 | 99 | 1016.1 | |
| 20260905174500 | 12 | 0.0 | 0.0 | 0.10 | 1.68 | 1.04 | 99 | 1016.3 | |
| 20260905173958 | 12 | 0.0 | 0.0 | 0.10 | 1.68 | 1.04 | 99 | 1016.4 | |
| 20260905173457 | 12 | 0.0 | 0.0 | 0.10 | 1.68 | 1.04 | 99 | 1016.6 | |
| 20260905172955 | 12 | 0.0 | 0.0 | 0.10 | 1.68 | 1.04 | 99 | 1016.5 | |
| 20260905172454 | 12 | 0.0 | 0.0 | 0.10 | 1.68 | 1.04 | 99 | 1016.4 | |
| 20260905171952 | 12 | 0.0 | 0.0 | 0.13 | 1.68 | 1.04 | 99 | 1016.1 | |
| 20260905171450 | 12 | 0.0 | 0.0 | 0.10 | 1.65 | 1.02 | 99 | 1016.4 | |
| 20260905170948 | 12 | 0.0 | 0.0 | 0.10 | 1.65 | 1.02 | 99 | 1016.2 | |
| 20260905170447 | 12 | 0.0 | 0.0 | 0.10 | 1.65 | 1.02 | 99 | 1016.5 | |
| 20260905165945 | 12 | 0.0 | 0.0 | 0.10 | 1.85 | 1.02 | 99 | 1016.3 | |
| 20260905165443 | 12 | 0.0 | 0.0 | 0.10 | 1.85 | 1.02 | 99 | 1016.6 | |
| 20260905164941 | 12 | 0.0 | 0.0 | 0.05 | 1.80 | 0.97 | 99 | 1016.8 | |
| 20260905164439 | 12 | 0.0 | 0.0 | 0.03 | 1.78 | 0.94 | 99 | 1017.0 | |
| 20260905163937 | 12 | 0.0 | 0.0 | 0.05 | 1.78 | 0.94 | 99 | 1016.8 | |
| 20260905163436 | 12 | 0.0 | 0.0 | 0.05 | 1.78 | 0.94 | 99 | 1016.7 | |
| 20260905162933 | 12 | 0.0 | 0.0 | 0.08 | 1.78 | 0.94 | 99 | 1016.5 | |
| 20260905162432 | 12 | 0.0 | 0.0 | 0.08 | 1.78 | 0.94 | 99 | 1016.7 | |
| 20260905161930 | 12 | 0.0 | 0.0 | 0.20 | 1.75 | 0.91 | 99 | 1016.9 | |
| 20260905161428 | 12 | 0.0 | 0.0 | 0.20 | 1.75 | 0.91 | 99 | 1016.9 | |
| 20260905160927 | 12 | 0.0 | 0.0 | 0.20 | 1.75 | 0.91 | 99 | 1016.9 | |
| 20260905160425 | 12 | 0.0 | 0.0 | 0.20 | 1.75 | 0.91 | 99 | 1017.1 | |
| 20260905155923 | 12 | 0.0 | 0.0 | 0.20 | 1.75 | 0.91 | 99 | 1017.1 | |
| 20260905155422 | 12 | 0.0 | 0.0 | 0.20 | 1.75 | 0.91 | 99 | 1017.1 | |
| 20260905154920 | 12 | 0.0 | 0.0 | 0.20 | 1.75 | 0.91 | 99 | 1017.3 | |
| 20260905154418 | 13 | 0.0 | 0.0 | 0.20 | 1.75 | 0.91 | 99 | 1017.2 | |
| 20260905153916 | 13 | 0.0 | 0.0 | 0.20 | 1.75 | 0.91 | 99 | 1017.2 | |
| 20260905153415 | 13 | 0.0 | 0.0 | 0.20 | 1.75 | 0.91 | 99 | 1017.1 | |
| 20260905152913 | 13 | 0.0 | 0.0 | 0.18 | 1.73 | 0.89 | 99 | 1017.1 | |
| 20260905152411 | 12 | 0.0 | 0.0 | 0.18 | 1.73 | 0.89 | 99 | 1017.2 | |
| 20260905151909 | 12 | 0.0 | 0.0 | 0.13 | 1.68 | 0.84 | 99 | 1016.9 | |
| 20260905151407 | 12 | 0.0 | 0.0 | 0.03 | 1.57 | 0.76 | 99 | 1017.1 | |
| 20260905150905 | 12 | 0.0 | 0.0 | 0.00 | 1.55 | 0.74 | 99 | 1017.2 | |
| 20260905150403 | 12 | 0.0 | 0.0 | 0.00 | 1.55 | 0.74 | 99 | 1017.1 | |
| 20260905145901 | 12 | 0.0 | 0.0 | 0.00 | 1.55 | 0.74 | 99 | 1017.2 | |
| 20260905145359 | 13 | 0.0 | 0.0 | 0.00 | 1.55 | 0.74 | 99 | 1017.4 | |
| 20260905144857 | 12 | 0.0 | 0.0 | 0.00 | 1.55 | 0.74 | 99 | 1017.4 | |
| 20260905144355 | 13 | 0.0 | 0.0 | 0.00 | 1.55 | 0.74 | 99 | 1017.2 | |
| 20260905143853 | 13 | 0.0 | 0.0 | 0.00 | 1.55 | 0.74 | 99 | 1017.3 | |
| 20260905143351 | 13 | 0.0 | 0.0 | 0.00 | 1.55 | 0.74 | 99 | 1017.4 | |
| 20260905142849 | 13 | 0.0 | 0.0 | 0.00 | 1.55 | 0.74 | 99 | 1017.6 | |
| 20260905142347 | 13 | 0.0 | 0.0 | 0.00 | 1.55 | 0.74 | 99 | 1017.6 | |
| 20260905141844 | 13 | 0.0 | 0.0 | 0.00 | 1.55 | 0.74 | 99 | 1017.7 | |
| 20260905141342 | 13 | 0.0 | 0.0 | 0.00 | 1.55 | 0.74 | 99 | 1017.7 | |
| 20260905140840 | 13 | 0.0 | 0.0 | 0.00 | 1.55 | 0.74 | 99 | 1017.6 | |
| 20260905140338 | 13 | 0.0 | 0.0 | 0.00 | 1.55 | 0.74 | 99 | 1017.7 | |
| 20260905135835 | 13 | 0.0 | 0.0 | 0.00 | 1.55 | 0.74 | 97 | 1017.7 | |
| 20260905135332 | 14 | 0.0 | 0.0 | 0.00 | 1.55 | 0.74 | 96 | 1017.6 | |
| 20260905134830 | 15 | 0.0 | 0.0 | 0.00 | 1.55 | 0.74 | 98 | 1017.5 | |
| 20260905134327 | 14 | 0.0 | 0.0 | 0.00 | 1.55 | 0.74 | 99 | 1017.5 | |
| 20260905133825 | 14 | 0.0 | 0.0 | 0.10 | 1.55 | 0.74 | 99 | 1017.7 | |
| 20260905133323 | 14 | 0.0 | 0.0 | 0.10 | 1.55 | 0.74 | 99 | 1017.8 | |
| 20260905132820 | 14 | 0.0 | 0.0 | 0.23 | 1.55 | 0.74 | 99 | 1018.0 | |
| 20260905132318 | 13 | 0.0 | 0.0 | 0.23 | 1.55 | 0.74 | 99 | 1017.9 | |
| 20260905131815 | 13 | 0.0 | 0.0 | 0.23 | 1.55 | 0.74 | 99 | 1017.9 | |
| 20260905131312 | 13 | 0.0 | 0.0 | 0.23 | 1.55 | 0.74 | 99 | 1018.0 | |
| 20260905130810 | 13 | 0.0 | 0.0 | 0.23 | 1.55 | 0.74 | 99 | 1018.0 | |
| 20260905130307 | 13 | 0.0 | 0.0 | 0.23 | 1.55 | 0.74 | 99 | 1018.0 | |
| 20260905125804 | 13 | 0.0 | 0.0 | 0.23 | 1.55 | 0.74 | 99 | 1017.9 | |
| 20260905125305 | 13 | 0.0 | 0.0 | 0.23 | 1.55 | 0.74 | 99 | 1017.8 | |
| 20260905124800 | 13 | 0.0 | 0.0 | 0.23 | 1.55 | 0.74 | 99 | 1017.9 | |
| 20260905124257 | 12 | 0.0 | 0.0 | 0.23 | 1.55 | 0.74 | 99 | 1017.8 | |
| 20260905123755 | 12 | 0.0 | 0.0 | 0.23 | 1.55 | 0.74 | 99 | 1017.6 | |
| 20260905123252 | 12 | 0.0 | 0.0 | 0.18 | 1.50 | 0.69 | 99 | 1017.8 | |
| 20260905122749 | 12 | 0.0 | 0.0 | 0.10 | 1.42 | 0.61 | 99 | 1017.8 | |
| 20260905122247 | 12 | 0.0 | 0.0 | 0.00 | 1.32 | 0.51 | 99 | 1018.3 | |
| 20260905121744 | 12 | 0.0 | 0.0 | 0.00 | 1.32 | 0.51 | 99 | 1017.7 | |
| 20260905121241 | 13 | 0.0 | 0.0 | 0.00 | 1.32 | 0.51 | 99 | 1017.7 | |
| 20260905120739 | 13 | 0.0 | 0.0 | 0.00 | 1.32 | 0.51 | 99 | 1017.5 | |
| 20260905120236 | 13 | 0.0 | 0.0 | 0.00 | 1.32 | 0.51 | 99 | 1017.7 | |
| 20260905115733 | 12 | 0.0 | 0.0 | 0.00 | 1.32 | 0.51 | 99 | 1017.3 | |
| 20260905115230 | 12 | 0.0 | 0.0 | 0.00 | 1.32 | 0.51 | 99 | 1017.5 | |
| 20260905114728 | 12 | 0.0 | 0.0 | 0.00 | 1.32 | 0.51 | 99 | 1017.8 | |
| 20260905114226 | 12 | 0.0 | 0.0 | 0.00 | 1.32 | 0.51 | 99 | 1017.4 | |
| 20260905113723 | 12 | 0.0 | 0.0 | 0.00 | 1.32 | 0.51 | 99 | 1017.7 | |
| 20260905113221 | 12 | 0.0 | 0.0 | 0.00 | 1.32 | 0.51 | 99 | 1018.0 | |
| 20260905112719 | 12 | 0.0 | 0.0 | 0.41 | 1.32 | 0.51 | 99 | 1018.1 | |
| 20260905112217 | 12 | 0.0 | 0.0 | 0.41 | 1.32 | 0.51 | 99 | 1018.0 | |
| 20260905111715 | 12 | 0.0 | 0.0 | 0.48 | 1.32 | 0.51 | 99 | 1018.0 | |
| 20260905111212 | 12 | 0.0 | 0.0 | 0.48 | 1.32 | 0.51 | 99 | 1017.8 | |
| 20260905110710 | 12 | 0.0 | 0.0 | 0.48 | 1.32 | 0.51 | 99 | 1017.7 | |
| 20260905110209 | 12 | 0.0 | 0.0 | 0.48 | 1.32 | 0.51 | 99 | 1017.5 | |
| 20260905105707 | 12 | 0.0 | 0.0 | 0.48 | 1.32 | 0.51 | 99 | 1017.4 | |
| 20260905105206 | 12 | 0.0 | 0.0 | 0.48 | 1.32 | 0.51 | 99 | 1017.7 | |
| 20260905104704 | 12 | 0.0 | 0.0 | 0.48 | 1.32 | 0.51 | 99 | 1017.5 | |
| 20260905104202 | 12 | 0.0 | 0.0 | 0.48 | 1.32 | 0.51 | 99 | 1017.9 | |
| 20260905103701 | 12 | 0.0 | 0.0 | 0.51 | 1.32 | 0.51 | 99 | 1017.9 | |
| 20260905103159 | 12 | 0.0 | 0.0 | 0.51 | 1.32 | 0.51 | 99 | 1017.7 | |
| 20260905102657 | 12 | 0.0 | 0.0 | 0.48 | 1.30 | 0.48 | 99 | 1016.9 | |
| 20260905102156 | 12 | 0.0 | 0.0 | 0.25 | 1.07 | 0.25 | 99 | 1017.9 | |
| 20260905101654 | 12 | 0.0 | 0.0 | 0.03 | 0.84 | 0.03 | 99 | 1018.7 | |
| 20260905101152 | 12 | 0.0 | 0.0 | 0.03 | 0.84 | 0.03 | 99 | 1017.9 | |
| 20260905100651 | 12 | 0.0 | 0.0 | 0.03 | 0.84 | 0.03 | 99 | 1017.7 | |
| 20260905100149 | 12 | 0.0 | 0.0 | 0.03 | 0.84 | 0.03 | 99 | 1017.6 | |
| 20260905095648 | 12 | 0.0 | 0.0 | 0.03 | 0.84 | 0.03 | 99 | 1016.6 | |
| 20260905095146 | 12 | 0.0 | 0.0 | 0.03 | 0.84 | 0.03 | 99 | 1016.5 | |
| 20260905094644 | 12 | 0.0 | 0.0 | 0.03 | 0.84 | 0.03 | 99 | 1016.5 | |
| 20260905094142 | 12 | 0.0 | 0.0 | 0.03 | 0.84 | 0.03 | 99 | 1016.5 | |
| 20260905093640 | 12 | 0.0 | 0.0 | 0.03 | 0.84 | 0.03 | 99 | 1016.5 | |
| 20260905093139 | 12 | 0.0 | 0.0 | 0.00 | 0.81 | 0.00 | 99 | 1016.8 | |
| 20260905092637 | 12 | 0.0 | 0.0 | 0.00 | 0.81 | 0.00 | 99 | 1016.6 | |
| 20260905092136 | 12 | 0.0 | 0.0 | 0.00 | 0.81 | 0.00 | 99 | 1016.2 | |
| 20260905091634 | 12 | 0.0 | 0.0 | 0.00 | 0.81 | 0.00 | 99 | 1016.0 | |
| 20260905091132 | 12 | 0.0 | 0.0 | 0.00 | 0.81 | 0.00 | 99 | 1015.8 | |
| 20260905090631 | 12 | 0.0 | 0.0 | 0.00 | 0.81 | 0.00 | 99 | 1015.2 | |
| 20260905090129 | 12 | 0.0 | 0.0 | 0.00 | 0.81 | 0.00 | 99 | 1015.1 | |
| 20260905085628 | 12 | 0.0 | 0.0 | 0.00 | 0.81 | 0.00 | 99 | 1015.3 | |
| 20260905085126 | 12 | 0.0 | 0.0 | 0.00 | 0.81 | 0.00 | 99 | 1015.5 | |
| 20260905084624 | 12 | 0.0 | 0.0 | 0.00 | 0.81 | 0.00 | 99 | 1015.7 | |
| 20260905084123 | 12 | 0.0 | 0.0 | 0.00 | 0.81 | 0.00 | 99 | 1015.5 | |
| 20260905083621 | 12 | 0.0 | 0.0 | 0.00 | 0.81 | 0.00 | 99 | 1015.5 | |
| 20260905083120 | 12 | 0.0 | 0.0 | 0.00 | 0.81 | 0.00 | 99 | 1015.9 | |
| 20260905082618 | 12 | 0.0 | 0.0 | 0.00 | 0.81 | 0.00 | 99 | 1015.9 | |
| 20260905082117 | 12 | 0.0 | 0.0 | 0.00 | 0.81 | 0.00 | 99 | 1015.4 | |
| 20260905081615 | 12 | 0.0 | 0.0 | 0.00 | 0.81 | 0.00 | 99 | 1015.7 | |
| 20260905081114 | 12 | 0.0 | 0.0 | 0.00 | 0.81 | 0.00 | 99 | 1015.7 | |
| 20260905080612 | 12 | 0.0 | 0.0 | 0.00 | 0.81 | 0.00 | 99 | 1016.1 | |
| 20260905080110 | 12 | 0.0 | 0.0 | 0.00 | 0.81 | 0.00 | 99 | 1015.9 | |
| 20260905075608 | 12 | 0.0 | 0.0 | 0.00 | 0.81 | 0.00 | 99 | 1016.1 | |
| 20260905075107 | 12 | 0.0 | 0.0 | 0.00 | 0.81 | 0.00 | 99 | 1015.9 | |
| 20260905074605 | 12 | 0.0 | 0.0 | 0.00 | 0.81 | 0.00 | 99 | 1016.0 | |
| 20260905074103 | 12 | 0.0 | 0.0 | 0.00 | 0.81 | 0.00 | 99 | 1016.0 | |
| 20260905073602 | 12 | 0.0 | 0.0 | 0.00 | 0.81 | 0.00 | 99 | 1015.7 | |
| 20260905073100 | 12 | 0.0 | 0.0 | 0.00 | 0.81 | 0.00 | 99 | 1015.6 | |
| 20260905072558 | 12 | 0.0 | 0.0 | 0.00 | 0.81 | 0.00 | 99 | 1015.5 | |
| 20260905072057 | 12 | 0.0 | 0.0 | 0.00 | 0.81 | 0.00 | 99 | 1015.4 | |
| 20260905071555 | 12 | 0.0 | 0.0 | 0.00 | 0.81 | 0.00 | 99 | 1015.5 | |
| 20260905071053 | 12 | 0.0 | 0.0 | 0.00 | 0.81 | 0.00 | 99 | 1015.8 | |
| 20260905070551 | 12 | 0.0 | 0.0 | 0.00 | 0.81 | 0.00 | 99 | 1015.9 | |
| 20260905070049 | 12 | 0.0 | 0.0 | 0.00 | 0.81 | 0.00 | 99 | 1015.9 | |
| 20260905065548 | 12 | 0.0 | 0.0 | 0.00 | 0.81 | 0.00 | 99 | 1015.8 | |
| 20260905065046 | 12 | 0.0 | 0.0 | 0.00 | 0.81 | 0.00 | 99 | 1015.8 | |
| 20260905064545 | 12 | 0.0 | 0.0 | 0.00 | 0.81 | 0.00 | 99 | 1016.0 | |
| 20260905064043 | 12 | 0.0 | 0.0 | 0.00 | 0.81 | 0.00 | 99 | 1016.0 | |
| 20260905063542 | 12 | 0.0 | 0.0 | 0.00 | 0.81 | 0.00 | 99 | 1016.3 | |
| 20260905063040 | 12 | 0.0 | 0.0 | 0.00 | 0.81 | 0.00 | 99 | 1016.4 | |
| 20260905062539 | 12 | 0.0 | 0.0 | 0.00 | 0.81 | 0.00 | 99 | 1016.4 | |
| 20260905062037 | 12 | 0.0 | 0.0 | 0.00 | 0.81 | 0.00 | 99 | 1016.2 | |
| 20260905061536 | 12 | 0.0 | 0.0 | 0.00 | 0.81 | 0.00 | 99 | 1016.3 | |
| 20260905061034 | 12 | 0.0 | 0.0 | 0.00 | 0.81 | 0.00 | 99 | 1016.2 | |
| 20260905060533 | 12 | 0.0 | 0.0 | 0.00 | 0.81 | 0.00 | 99 | 1016.2 | |
| 20260905060031 | 12 | 0.0 | 0.0 | 0.00 | 0.81 | 0.00 | 99 | 1016.2 | |
| 20260905055530 | 12 | 0.0 | 0.0 | 0.00 | 0.81 | 0.00 | 99 | 1016.2 | |
| 20260905055028 | 12 | 0.0 | 0.0 | 0.00 | 0.81 | 0.00 | 99 | 1016.1 | |
| 20260905054527 | 12 | 0.0 | 0.0 | 0.00 | 0.81 | 0.00 | 99 | 1016.2 | |
| 20260905054025 | 12 | 0.0 | 0.0 | 0.00 | 0.81 | 0.00 | 99 | 1016.5 | |
| 20260905053524 | 12 | 0.0 | 0.0 | 0.00 | 0.81 | 0.00 | 99 | 1016.6 | |
| 20260905053022 | 12 | 0.0 | 0.0 | 0.00 | 0.81 | 0.00 | 99 | 1016.7 | |
| 20260905052520 | 12 | 0.0 | 0.0 | 0.00 | 0.81 | 0.00 | 99 | 1016.7 | |
| 20260905052019 | 12 | 0.0 | 0.0 | 0.00 | 0.81 | 0.00 | 99 | 1016.4 | |
| 20260905051517 | 12 | 0.0 | 0.0 | 0.00 | 0.81 | 0.00 | 99 | 1016.3 | |
| 20260905051016 | 12 | 0.0 | 0.0 | 0.00 | 0.81 | 0.00 | 99 | 1016.6 | |
| 20260905050514 | 12 | 0.0 | 0.0 | 0.00 | 0.81 | 0.00 | 99 | 1016.8 | |
| 20260905050012 | 12 | 0.0 | 0.0 | 0.00 | 0.81 | 0.00 | 99 | 1016.8 | |
| 20260905045511 | 12 | 0.0 | 0.0 | 0.00 | 0.81 | 0.00 | 99 | 1016.5 | |
| 20260905045009 | 12 | 0.0 | 0.0 | 0.00 | 0.81 | 0.00 | 99 | 1016.5 | |
| 20260905044507 | 12 | 0.0 | 0.0 | 0.00 | 0.81 | 0.00 | 99 | 1016.5 | |
| 20260905044006 | 12 | 0.0 | 0.0 | 0.00 | 0.81 | 0.00 | 99 | 1016.5 | |
| 20260905043504 | 12 | 0.0 | 0.0 | 0.00 | 0.81 | 0.00 | 99 | 1016.7 | |
| 20260905043002 | 12 | 0.0 | 0.0 | 0.00 | 0.81 | 0.00 | 99 | 1016.6 | |
| 20260905042501 | 12 | 0.0 | 0.0 | 0.00 | 0.81 | 0.00 | 99 | 1016.5 | |
| 20260905041959 | 12 | 0.0 | 0.0 | 0.00 | 0.81 | 0.00 | 99 | 1016.5 | |
| 20260905041458 | 12 | 0.0 | 0.0 | 0.00 | 0.81 | 0.00 | 99 | 1016.7 | |
| 20260905040956 | 12 | 0.0 | 0.0 | 0.00 | 0.81 | 0.00 | 99 | 1016.8 | |
| 20260905040454 | 12 | 0.0 | 0.0 | 0.00 | 0.81 | 0.00 | 99 | 1016.8 | |
| 20260905035952 | 12 | 0.0 | 0.0 | 0.00 | 0.81 | 0.00 | 99 | 1017.1 | |
| 20260905035451 | 12 | 0.0 | 0.0 | 0.00 | 0.81 | 0.00 | 99 | 1017.2 | |
| 20260905034949 | 12 | 0.0 | 0.0 | 0.00 | 0.81 | 0.00 | 99 | 1017.1 | |
| 20260905034448 | 12 | 0.0 | 0.0 | 0.00 | 0.81 | 0.00 | 99 | 1017.2 | |
| 20260905033946 | 12 | 0.0 | 0.0 | 0.00 | 0.81 | 0.00 | 99 | 1017.2 | |
| 20260905033444 | 12 | 0.0 | 0.0 | 0.00 | 0.81 | 0.00 | 99 | 1017.2 | |
| 20260905032943 | 12 | 0.0 | 0.0 | 0.00 | 0.81 | 0.00 | 99 | 1017.3 | |
| 20260905032441 | 12 | 0.0 | 0.0 | 0.00 | 0.81 | 0.00 | 99 | 1017.3 | |
| 20260905031940 | 12 | 0.0 | 0.0 | 0.03 | 0.81 | 0.00 | 99 | 1017.5 | |
| 20260905031438 | 12 | 0.0 | 0.0 | 0.03 | 0.81 | 0.00 | 99 | 1017.8 | |
| 20260905030937 | 12 | 0.0 | 0.0 | 0.10 | 0.81 | 0.00 | 99 | 1017.7 | |
| 20260905030435 | 12 | 0.0 | 0.0 | 0.10 | 0.81 | 0.00 | 99 | 1018.0 | |
| 20260905025933 | 12 | 0.0 | 0.0 | 0.10 | 0.81 | 0.81 | 99 | 1018.3 | |
| 20260905025432 | 12 | 0.0 | 0.0 | 0.10 | 0.81 | 0.81 | 99 | 1018.4 | |
| 20260905024930 | 12 | 0.0 | 0.0 | 0.13 | 0.81 | 0.81 | 99 | 1018.2 | |
| 20260905024428 | 12 | 0.0 | 0.0 | 0.13 | 0.81 | 0.81 | 99 | 1018.1 | |
| 20260905023927 | 12 | 0.0 | 0.0 | 0.13 | 0.81 | 0.81 | 99 | 1017.9 | |
| 20260905023425 | 12 | 0.0 | 0.0 | 0.13 | 0.81 | 0.81 | 99 | 1018.1 | |
| 20260905022923 | 12 | 0.0 | 0.0 | 0.13 | 0.81 | 0.81 | 99 | 1018.5 | |
| 20260905022421 | 12 | 0.0 | 0.0 | 0.13 | 0.81 | 0.81 | 99 | 1018.5 | |
| 20260905021919 | 13 | 0.0 | 0.0 | 0.13 | 0.81 | 0.81 | 99 | 1018.4 | |
| 20260905021417 | 13 | 0.0 | 0.0 | 0.13 | 0.81 | 0.81 | 99 | 1018.1 | |
| 20260905020916 | 13 | 0.0 | 0.0 | 0.08 | 0.79 | 0.79 | 99 | 1018.3 | |
| 20260905020414 | 13 | 0.0 | 0.0 | 0.05 | 0.76 | 0.76 | 99 | 1018.8 | |
| 20260905015912 | 13 | 0.0 | 0.0 | 0.03 | 0.74 | 0.74 | 99 | 1018.3 | |
| 20260905015410 | 13 | 0.0 | 0.0 | 0.03 | 0.74 | 0.74 | 99 | 1018.2 | |
| 20260905014909 | 13 | 0.0 | 0.0 | 0.00 | 0.71 | 0.71 | 99 | 1018.4 | |
| 20260905014406 | 13 | 0.0 | 0.0 | 0.00 | 0.71 | 0.71 | 99 | 1018.2 | |
| 20260905013904 | 13 | 0.0 | 0.0 | 0.00 | 0.71 | 0.71 | 99 | 1017.9 | |
| 20260905013403 | 13 | 0.0 | 0.0 | 0.00 | 0.71 | 0.71 | 99 | 1018.0 | |
| 20260905012900 | 13 | 0.0 | 0.0 | 0.00 | 0.71 | 0.71 | 99 | 1018.0 | |
| 20260905012359 | 13 | 0.0 | 0.0 | 0.00 | 0.71 | 0.71 | 99 | 1017.8 | |
| 20260905011856 | 13 | 0.0 | 0.0 | 0.00 | 0.71 | 0.71 | 99 | 1017.6 | |
| 20260905011354 | 13 | 0.0 | 0.0 | 0.00 | 0.71 | 0.71 | 99 | 1017.5 | |
| 20260905010853 | 13 | 0.0 | 0.0 | 0.00 | 0.71 | 0.71 | 99 | 1017.6 | |
| 20260905010351 | 13 | 0.0 | 0.0 | 0.00 | 0.71 | 0.71 | 99 | 1017.7 | |
| 20260905005849 | 13 | 0.0 | 0.0 | 0.00 | 0.71 | 0.71 | 99 | 1017.9 | |
| 20260905005347 | 13 | 0.0 | 0.0 | 0.00 | 0.71 | 0.71 | 99 | 1017.7 | |
| 20260905004845 | 13 | 0.0 | 0.0 | 0.00 | 0.71 | 0.71 | 99 | 1017.7 | |
| 20260905004343 | 13 | 0.0 | 0.0 | 0.00 | 0.71 | 0.71 | 99 | 1017.9 | |
| 20260905003842 | 13 | 0.0 | 0.0 | 0.00 | 0.71 | 0.71 | 99 | 1018.0 | |
| 20260905003340 | 13 | 0.0 | 0.0 | 0.00 | 0.71 | 0.71 | 99 | 1017.8 | |
| 20260905002838 | 13 | 0.0 | 0.0 | 0.00 | 0.71 | 0.71 | 99 | 1017.7 | |
| 20260905002336 | 13 | 0.0 | 0.0 | 0.00 | 0.71 | 0.71 | 99 | 1017.6 | |
| 20260905001834 | 13 | 0.0 | 0.0 | 0.00 | 0.71 | 0.71 | 99 | 1017.5 | |
| 20260905001332 | 13 | 0.0 | 0.0 | 0.00 | 0.71 | 0.71 | 99 | 1017.4 | |
| 20260905000830 | 13 | 0.0 | 0.0 | 0.00 | 0.71 | 0.71 | 99 | 1017.2 | |
| 20260905000328 | 13 | 0.0 | 0.0 | 0.00 | 0.71 | 0.71 | 99 | 1017.3 | |
| 20260904235825 | 13 | 0.0 | 0.0 | 0.00 | 0.71 | 0.71 | 99 | 1017.2 | |
| 20260904235323 | 14 | 0.0 | 0.0 | 0.00 | 0.71 | 0.71 | 99 | 1017.2 | |
| 20260904234821 | 14 | 0.0 | 0.0 | 0.00 | 0.71 | 0.71 | 99 | 1017.1 | |
| 20260904234319 | 14 | 0.0 | 0.0 | 0.00 | 0.71 | 0.71 | 99 | 1017.3 | |
| 20260904233817 | 14 | 0.0 | 0.0 | 0.00 | 0.71 | 0.71 | 99 | 1017.1 | |
| 20260904233315 | 14 | 0.0 | 0.0 | 0.00 | 0.71 | 0.71 | 99 | 1017.1 | |
| 20260904232813 | 14 | 0.0 | 0.0 | 0.00 | 0.71 | 0.71 | 99 | 1017.0 | |
| 20260904232311 | 15 | 0.0 | 0.0 | 0.00 | 0.71 | 0.71 | 99 | 1017.0 | |
| 20260904231809 | 15 | 0.0 | 0.0 | 0.00 | 0.71 | 0.71 | 99 | 1016.9 | |
| 20260904231308 | 15 | 0.0 | 0.0 | 0.00 | 0.71 | 0.71 | 99 | 1016.9 | |
| 20260904230806 | 15 | 0.0 | 0.0 | 0.00 | 0.71 | 0.71 | 99 | 1016.9 | |
| 20260904230305 | 15 | 0.0 | 0.0 | 0.00 | 0.71 | 0.71 | 99 | 1016.8 | |
| 20260904225803 | 15 | 0.0 | 0.0 | 0.00 | 0.71 | 0.71 | 99 | 1016.8 | |
| 20260904225301 | 15 | 0.0 | 0.0 | 0.00 | 0.71 | 0.71 | 99 | 1016.8 | |
| 20260904224759 | 15 | 0.0 | 0.0 | 0.00 | 0.71 | 0.71 | 99 | 1016.6 | |
| 20260904224256 | 15 | 0.0 | 0.0 | 0.00 | 0.71 | 0.71 | 99 | 1016.3 | |
| 20260904223754 | 15 | 0.0 | 0.0 | 0.03 | 0.71 | 0.71 | 99 | 1016.2 | |
| 20260904223252 | 15 | 0.0 | 0.0 | 0.03 | 0.71 | 0.71 | 99 | 1016.2 | |
| 20260904222750 | 15 | 0.0 | 0.0 | 0.03 | 0.71 | 0.71 | 99 | 1016.5 | |
| 20260904222248 | 15 | 0.0 | 0.0 | 0.03 | 0.71 | 0.71 | 99 | 1016.6 | |
| 20260904221746 | 15 | 0.0 | 0.0 | 0.03 | 0.71 | 0.71 | 99 | 1016.5 | |
| 20260904221244 | 15 | 0.0 | 0.0 | 0.03 | 0.71 | 0.71 | 99 | 1016.5 | |
| 20260904220742 | 16 | 0.0 | 0.0 | 0.03 | 0.71 | 0.71 | 99 | 1016.6 | |
| 20260904220240 | 16 | 0.0 | 0.0 | 0.03 | 0.71 | 0.71 | 99 | 1016.5 | |
| 20260904215738 | 16 | 0.0 | 0.0 | 0.03 | 0.71 | 0.71 | 99 | 1016.8 | |
| 20260904215236 | 16 | 0.0 | 0.0 | 0.03 | 0.71 | 0.71 | 99 | 1016.9 | |
| 20260904214734 | 16 | 0.0 | 0.0 | 0.05 | 0.71 | 0.71 | 99 | 1017.1 | |
| 20260904214232 | 16 | 0.0 | 0.0 | 0.05 | 0.71 | 0.71 | 99 | 1017.4 | |
| 20260904213730 | 16 | 0.0 | 0.0 | 0.10 | 0.71 | 0.71 | 99 | 1017.3 | |
| 20260904213228 | 16 | 0.0 | 0.0 | 0.10 | 0.71 | 0.71 | 99 | 1017.4 | |
| 20260904212726 | 16 | 0.0 | 0.0 | 0.15 | 0.69 | 0.69 | 99 | 1017.5 | |
| 20260904212225 | 16 | 0.0 | 0.0 | 0.15 | 0.69 | 0.69 | 99 | 1017.5 | |
| 20260904211723 | 16 | 0.0 | 0.0 | 0.15 | 0.69 | 0.69 | 99 | 1017.5 | |
| 20260904211221 | 16 | 0.0 | 0.0 | 0.15 | 0.69 | 0.69 | 99 | 1017.6 | |
| 20260904210720 | 16 | 0.0 | 0.0 | 0.18 | 0.69 | 0.69 | 99 | 1017.5 | |
| 20260904210219 | 16 | 0.0 | 0.0 | 0.18 | 0.69 | 0.69 | 99 | 1017.2 | |
| 20260904205717 | 16 | 0.0 | 0.0 | 0.18 | 0.69 | 0.69 | 99 | 1017.0 | |
| 20260904205215 | 16 | 0.0 | 0.0 | 0.18 | 0.69 | 0.69 | 99 | 1016.6 | |
| 20260904204714 | 16 | 0.0 | 0.0 | 0.18 | 0.69 | 0.69 | 99 | 1016.4 | |
| 20260904204212 | 16 | 0.0 | 0.0 | 0.18 | 0.69 | 0.69 | 99 | 1016.8 | |
| 20260904203710 | 16 | 0.0 | 0.0 | 0.13 | 0.64 | 0.64 | 99 | 1017.5 | |
| 20260904203208 | 16 | 0.0 | 0.0 | 0.10 | 0.61 | 0.61 | 99 | 1017.7 |